createdAt,value
2018-09-28T00:00:34.733Z,7.93
2018-09-28T00:03:08.007Z,7.37
2018-09-28T00:05:41.107Z,7.27
2018-09-28T00:08:14.383Z,6.27
2018-09-28T00:10:47.447Z,7.43
2018-09-28T00:13:19.680Z,7.77
2018-09-28T00:15:51.829Z,7.47
2018-09-28T00:18:24.356Z,7.83
2018-09-28T00:20:56.721Z,7.10
2018-09-28T00:23:28.980Z,7.60
2018-09-28T00:26:01.220Z,8.20
2018-09-28T00:28:33.424Z,6.90
2018-09-28T00:31:06.054Z,8.23
2018-09-28T00:33:38.260Z,14.20
2018-09-28T00:36:10.805Z,14.50
2018-09-28T00:38:43.314Z,11.23
2018-09-28T00:41:15.609Z,10.63
2018-09-28T00:43:48.754Z,9.97
2018-09-28T00:46:20.897Z,9.80
2018-09-28T00:48:53.090Z,9.93
2018-09-28T00:51:25.220Z,10.03
2018-09-28T00:53:58.402Z,9.70
2018-09-28T00:56:30.582Z,10.23
2018-09-28T00:59:02.940Z,8.80
2018-09-28T01:01:35.051Z,8.43
2018-09-28T01:04:07.287Z,8.83
2018-09-28T01:06:39.397Z,8.17
2018-09-28T01:09:14.209Z,7.50
2018-09-28T01:11:46.666Z,7.90
2018-09-28T01:14:19.593Z,9.87
2018-09-28T01:16:51.800Z,8.47
2018-09-28T01:19:24.161Z,10.23
2018-09-28T01:21:56.347Z,11.30
2018-09-28T01:24:28.614Z,11.80
2018-09-28T01:27:00.814Z,11.03
2018-09-28T01:29:33.136Z,11.13
2018-09-28T01:32:05.589Z,12.27
2018-09-28T01:34:37.847Z,11.37
2018-09-28T01:37:10.202Z,10.83
2018-09-28T01:39:42.789Z,10.37
2018-09-28T01:42:14.939Z,10.50
2018-09-28T01:44:47.212Z,11.43
2018-09-28T01:47:19.303Z,10.63
2018-09-28T01:49:51.482Z,11.83
2018-09-28T01:52:23.728Z,8.83
2018-09-28T01:54:55.978Z,10.10
2018-09-28T01:57:28.098Z,9.60
2018-09-28T02:00:02.405Z,8.27
2018-09-28T02:02:34.508Z,8.10
2018-09-28T02:05:06.789Z,7.47
2018-09-28T02:07:38.935Z,7.77
2018-09-28T02:10:11.382Z,8.17
2018-09-28T02:12:43.678Z,7.50
2018-09-28T02:15:15.971Z,8.20
2018-09-28T02:17:48.295Z,7.23
2018-09-28T02:20:20.550Z,8.77
2018-09-28T02:22:52.694Z,8.43
2018-09-28T02:25:24.951Z,7.60
2018-09-28T02:27:57.342Z,7.63
2018-09-28T02:30:29.636Z,8.53
2018-09-28T02:33:01.773Z,11.50
2018-09-28T02:35:34.060Z,9.17
2018-09-28T02:38:06.173Z,7.57
2018-09-28T02:40:38.756Z,7.17
2018-09-28T02:43:12.171Z,6.80
2018-09-28T02:45:45.034Z,7.63
2018-09-28T02:48:17.131Z,7.03
2018-09-28T02:50:49.326Z,7.13
2018-09-28T02:53:22.536Z,7.20
2018-09-28T02:55:54.769Z,8.17
2018-09-28T02:58:26.854Z,6.37
2018-09-28T03:01:00.218Z,6.03
2018-09-28T03:03:32.351Z,6.40
2018-09-28T03:06:05.106Z,6.20
2018-09-28T03:08:37.220Z,6.90
2018-09-28T03:11:10.120Z,6.40
2018-09-28T03:13:42.208Z,6.37
2018-09-28T03:16:14.370Z,7.27
2018-09-28T03:18:46.493Z,6.63
2018-09-28T03:21:18.732Z,6.83
2018-09-28T03:23:50.830Z,6.93
2018-09-28T03:26:23.202Z,6.20
2018-09-28T03:28:55.350Z,6.70
2018-09-28T03:31:28.430Z,7.23
2018-09-28T03:34:00.563Z,7.77
2018-09-28T03:36:32.740Z,8.50
2018-09-28T03:39:06.855Z,7.20
2018-09-28T03:41:39.373Z,6.50
2018-09-28T03:44:11.681Z,7.67
2018-09-28T03:46:43.873Z,7.00
2018-09-28T03:49:15.960Z,5.77
2018-09-28T03:51:48.225Z,5.40
2018-09-28T03:54:20.308Z,5.60
2018-09-28T03:56:52.677Z,5.00
2018-09-28T03:59:24.946Z,5.87
2018-09-28T04:01:57.308Z,5.43
2018-09-28T04:04:29.395Z,4.83
2018-09-28T04:07:01.542Z,5.10
2018-09-28T04:09:33.664Z,5.50
2018-09-28T04:12:05.897Z,6.00
2018-09-28T04:14:38.135Z,6.53
2018-09-28T04:17:10.281Z,6.73
2018-09-28T04:19:42.395Z,7.23
2018-09-28T04:22:14.617Z,6.17
2018-09-28T04:24:46.766Z,6.57
2018-09-28T04:27:19.111Z,6.60
2018-09-28T04:29:51.202Z,6.73
2018-09-28T04:32:23.348Z,7.90
2018-09-28T04:34:55.427Z,8.43
2018-09-28T04:37:27.645Z,14.73
2018-09-28T04:39:59.781Z,9.03
2018-09-28T04:42:32.376Z,11.00
2018-09-28T04:45:04.659Z,11.13
2018-09-28T04:47:36.856Z,16.97
2018-09-28T04:50:09.011Z,14.23
2018-09-28T04:52:41.432Z,14.93
2018-09-28T04:55:13.557Z,16.23
2018-09-28T04:57:45.775Z,25.73
2018-09-28T05:00:17.908Z,25.80
2018-09-28T05:02:51.028Z,21.63
2018-09-28T05:05:23.163Z,16.40
2018-09-28T05:07:55.453Z,13.40
2018-09-28T05:10:27.686Z,11.67
2018-09-28T05:13:00.793Z,9.80
2018-09-28T05:15:33.084Z,8.10
2018-09-28T05:18:05.391Z,8.13
2018-09-28T05:20:37.620Z,7.87
2018-09-28T05:23:10.200Z,6.03
2018-09-28T05:25:42.400Z,5.10
2018-09-28T05:28:15.511Z,5.40
2018-09-28T05:30:53.967Z,5.00
2018-09-28T05:33:20.143Z,5.40
2018-09-28T05:35:52.376Z,4.70
2018-09-28T05:38:24.786Z,5.20
2018-09-28T05:40:57.039Z,11.07
2018-09-28T05:43:29.428Z,22.03
2018-09-28T05:46:01.623Z,19.47
2018-09-28T05:48:33.918Z,28.57
2018-09-28T05:51:06.230Z,21.63
2018-09-28T05:53:38.804Z,16.30
2018-09-28T05:56:11.016Z,14.10
2018-09-28T05:58:47.783Z,10.17
2018-09-28T06:01:24.431Z,11.43
2018-09-28T06:04:01.172Z,11.70
2018-09-28T06:06:33.417Z,9.27
2018-09-28T06:09:07.065Z,10.50
2018-09-28T06:11:39.395Z,14.37
2018-09-28T06:14:11.902Z,18.63
2018-09-28T06:16:44.127Z,20.80
2018-09-28T06:19:16.403Z,17.30
2018-09-28T06:21:48.602Z,15.87
2018-09-28T06:24:21.131Z,12.17
2018-09-28T06:26:53.474Z,10.47
2018-09-28T06:29:25.892Z,11.90
2018-09-28T06:31:58.101Z,31.60
2018-09-28T06:34:30.380Z,46.80
2018-09-28T06:37:02.588Z,51.93
2018-09-28T06:39:34.851Z,42.27
2018-09-28T06:42:07.146Z,44.63
2018-09-28T06:44:40.282Z,36.13
2018-09-28T06:47:12.577Z,31.60
2018-09-28T06:49:44.854Z,27.77
2018-09-28T06:52:17.066Z,19.27
2018-09-28T06:54:49.337Z,12.00
2018-09-28T06:57:22.050Z,8.43
2018-09-28T06:59:54.435Z,8.07
2018-09-28T07:02:26.751Z,6.87
2018-09-28T07:04:59.065Z,5.87
2018-09-28T07:07:31.270Z,6.37
2018-09-28T07:10:03.536Z,5.77
2018-09-28T07:12:35.735Z,6.07
2018-09-28T07:15:08.380Z,5.37
2018-09-28T07:17:40.689Z,5.47
2018-09-28T07:20:13.795Z,5.33
2018-09-28T07:22:46.051Z,4.80
2018-09-28T07:25:18.412Z,4.93
2018-09-28T07:27:50.628Z,5.40
2018-09-28T07:30:23.118Z,6.20
2018-09-28T07:32:55.405Z,6.83
2018-09-28T07:35:27.691Z,6.03
2018-09-28T07:37:59.905Z,6.30
2018-09-28T07:40:32.170Z,6.50
2018-09-28T07:43:04.385Z,5.57
2018-09-28T07:45:36.752Z,5.60
2018-09-28T07:48:09.766Z,6.50
2018-09-28T07:50:42.047Z,6.33
2018-09-28T07:53:14.254Z,8.17
2018-09-28T07:55:46.550Z,7.97
2018-09-28T07:58:18.900Z,7.03
2018-09-28T08:00:51.968Z,7.20
2018-09-28T08:03:29.924Z,6.60
2018-09-28T08:06:02.792Z,9.30
2018-09-28T08:08:35.005Z,6.77
2018-09-28T08:11:07.287Z,6.70
2018-09-28T08:13:39.515Z,5.93
2018-09-28T08:16:11.828Z,5.40
2018-09-28T08:18:44.031Z,6.07
2018-09-28T08:21:16.300Z,6.20
2018-09-28T08:23:48.522Z,5.50
2018-09-28T08:26:21.071Z,5.53
2018-09-28T08:28:53.300Z,5.33
2018-09-28T08:31:25.642Z,5.33
2018-09-28T08:33:57.840Z,5.20
2018-09-28T08:36:30.231Z,6.20
2018-09-28T08:39:02.512Z,5.97
2018-09-28T08:41:34.785Z,6.40
2018-09-28T08:44:07.179Z,5.67
2018-09-28T08:46:39.791Z,7.97
2018-09-28T08:49:11.985Z,7.90
2018-09-28T08:51:45.155Z,7.90
2018-09-28T08:54:18.339Z,7.83
2018-09-28T08:56:51.334Z,8.77
2018-09-28T08:59:23.543Z,10.43
2018-09-28T09:01:55.847Z,8.70
2018-09-28T09:04:28.139Z,8.73
2018-09-28T09:07:00.518Z,7.60
2018-09-28T09:09:32.723Z,7.97
2018-09-28T09:12:04.986Z,6.83
2018-09-28T09:14:37.172Z,7.47
2018-09-28T09:17:10.256Z,7.37
2018-09-28T09:19:42.469Z,7.00
2018-09-28T09:22:14.774Z,6.93
2018-09-28T09:24:46.985Z,6.50
2018-09-28T09:27:19.840Z,6.10
2018-09-28T09:29:52.059Z,6.83
2018-09-28T09:32:24.385Z,5.73
2018-09-28T09:34:56.601Z,6.30
2018-09-28T09:37:28.909Z,5.93
2018-09-28T09:40:01.112Z,6.60
2018-09-28T09:42:33.376Z,6.00
2018-09-28T09:45:05.700Z,5.23
2018-09-28T09:47:38.140Z,5.50
2018-09-28T09:50:10.386Z,6.30
2018-09-28T09:52:42.655Z,6.60
2018-09-28T09:55:15.020Z,5.70
2018-09-28T09:57:47.324Z,5.97
2018-09-28T10:02:25.599Z,6.20
2018-09-28T10:04:57.911Z,7.97
2018-09-28T10:07:30.115Z,6.43
2018-09-28T10:10:02.383Z,6.30
2018-09-28T10:12:34.597Z,7.40
2018-09-28T10:15:07.104Z,8.30
2018-09-28T10:17:39.283Z,6.83
2018-09-28T10:20:11.663Z,6.93
2018-09-28T10:22:44.392Z,7.43
2018-09-28T10:25:16.647Z,6.70
2018-09-28T10:27:48.928Z,7.00
2018-09-28T10:30:22.610Z,7.10
2018-09-28T10:32:54.821Z,6.10
2018-09-28T10:35:27.169Z,7.53
2018-09-28T10:37:59.499Z,7.43
2018-09-28T10:40:31.843Z,17.03
2018-09-28T10:43:04.137Z,8.80
2018-09-28T10:45:36.455Z,8.53
2018-09-28T10:48:08.699Z,8.83
2018-09-28T10:50:41.304Z,9.07
2018-09-28T10:53:13.599Z,9.23
2018-09-28T10:55:45.987Z,10.70
2018-09-28T10:58:18.198Z,9.47
2018-09-28T11:00:50.536Z,10.03
2018-09-28T11:03:22.784Z,7.93
2018-09-28T11:05:55.254Z,7.00
2018-09-28T11:08:27.467Z,7.13
2018-09-28T11:10:59.937Z,6.53
2018-09-28T11:13:32.154Z,6.40
2018-09-28T11:16:04.428Z,6.60
2018-09-28T11:18:36.630Z,6.47
2018-09-28T11:21:09.103Z,6.70
2018-09-28T11:23:42.042Z,7.00
2018-09-28T11:26:14.305Z,7.30
2018-09-28T11:28:46.716Z,8.27
2018-09-28T11:31:19.202Z,9.93
2018-09-28T11:33:51.483Z,8.20
2018-09-28T11:36:23.933Z,10.17
2018-09-28T11:38:56.203Z,11.00
2018-09-28T11:41:28.518Z,9.43
2018-09-28T11:44:00.721Z,10.70
2018-09-28T11:46:32.981Z,8.13
2018-09-28T11:49:05.269Z,8.77
2018-09-28T11:51:38.082Z,7.90
2018-09-28T11:54:10.605Z,8.50
2018-09-28T11:56:43.224Z,9.07
2018-09-28T11:59:15.666Z,9.90
2018-09-28T12:01:47.950Z,10.50
2018-09-28T12:04:20.162Z,9.00
2018-09-28T12:06:52.699Z,8.33
2018-09-28T12:09:25.415Z,8.67
2018-09-28T12:11:57.740Z,7.77
2018-09-28T12:14:29.964Z,8.03
2018-09-28T12:17:02.308Z,9.73
2018-09-28T12:19:34.600Z,9.00
2018-09-28T12:22:06.954Z,13.60
2018-09-28T12:24:39.208Z,15.40
2018-09-28T12:27:11.523Z,11.00
2018-09-28T12:29:43.851Z,10.73
2018-09-28T12:32:16.419Z,11.30
2018-09-28T12:34:48.980Z,10.73
2018-09-28T12:37:21.332Z,10.00
2018-09-28T12:39:53.701Z,9.40
2018-09-28T12:42:26.149Z,10.37
2018-09-28T12:44:58.554Z,10.43
2018-09-28T12:47:30.903Z,10.63
2018-09-28T12:50:03.171Z,9.77
2018-09-28T12:52:36.347Z,9.40
2018-09-28T12:55:08.613Z,10.00
2018-09-28T12:57:40.917Z,10.27
2018-09-28T13:00:13.215Z,9.90
2018-09-28T13:02:45.656Z,10.20
2018-09-28T13:05:18.846Z,9.37
2018-09-28T13:07:51.235Z,9.83
2018-09-28T13:10:24.332Z,12.73
2018-09-28T13:12:56.729Z,10.80
2018-09-28T13:15:29.395Z,10.13
2018-09-28T13:18:01.768Z,11.47
2018-09-28T13:20:34.087Z,11.03
2018-09-28T13:23:06.447Z,10.83
2018-09-28T13:25:38.695Z,9.53
2018-09-28T13:28:11.087Z,10.67
2018-09-28T13:30:43.455Z,13.13
2018-09-28T13:33:16.112Z,10.93
2018-09-28T13:35:48.422Z,9.77
2018-09-28T13:38:20.852Z,12.87
2018-09-28T13:40:53.163Z,9.13
2018-09-28T13:43:25.536Z,11.03
2018-09-28T13:45:57.967Z,8.83
2018-09-28T13:48:30.281Z,8.20
2018-09-28T13:51:02.576Z,8.20
2018-09-28T13:53:35.182Z,7.77
2018-09-28T13:56:07.442Z,7.23
2018-09-28T13:58:39.797Z,7.37
2018-09-28T14:01:12.152Z,6.17
2018-09-28T14:03:44.437Z,7.27
2018-09-28T14:06:16.720Z,6.87
2018-09-28T14:08:49.229Z,5.93
2018-09-28T14:11:22.537Z,6.80
2018-09-28T14:13:54.964Z,7.93
2018-09-28T14:16:27.266Z,6.20
2018-09-28T14:18:59.582Z,9.03
2018-09-28T14:21:31.925Z,12.77
2018-09-28T14:24:09.387Z,11.10
2018-09-28T14:26:41.773Z,18.00
2018-09-28T14:29:14.375Z,9.33
2018-09-28T14:31:46.656Z,13.20
2018-09-28T14:34:19.304Z,9.80
2018-09-28T14:36:51.597Z,7.23
2018-09-28T14:39:23.947Z,8.10
2018-09-28T14:41:56.297Z,7.17
2018-09-28T14:44:28.734Z,9.20
2018-09-28T14:47:00.983Z,13.97
2018-09-28T14:49:34.655Z,9.10
2018-09-28T14:52:09.958Z,6.63
2018-09-28T14:54:45.562Z,6.00
2018-09-28T14:57:17.914Z,6.20
2018-09-28T14:59:50.444Z,6.40
2018-09-28T15:02:22.729Z,7.27
2018-09-28T15:04:55.106Z,6.50
2018-09-28T15:07:27.496Z,6.37
2018-09-28T15:10:00.205Z,5.43
2018-09-28T15:12:32.577Z,6.53
2018-09-28T15:15:05.171Z,5.83
2018-09-28T15:17:37.455Z,9.63
2018-09-28T15:20:09.937Z,5.60
2018-09-28T15:22:42.160Z,5.03
2018-09-28T15:25:14.558Z,6.93
2018-09-28T15:27:47.153Z,7.90
2018-09-28T15:30:19.576Z,4.20
2018-09-28T15:32:52.050Z,4.80
2018-09-28T15:35:24.524Z,4.67
2018-09-28T15:37:56.864Z,4.50
2018-09-28T15:40:29.359Z,5.63
2018-09-28T15:43:01.648Z,5.70
2018-09-28T15:45:33.998Z,5.40
2018-09-28T15:48:07.669Z,4.40
2018-09-28T15:50:40.055Z,6.60
2018-09-28T15:53:12.404Z,6.07
2018-09-28T15:55:45.959Z,9.17
2018-09-28T15:58:18.227Z,4.33
2018-09-28T16:00:50.774Z,3.40
2018-09-28T16:03:31.353Z,4.03
2018-09-28T16:06:03.745Z,5.30
2018-09-28T16:08:36.052Z,5.35
2018-09-28T16:11:08.528Z,5.87
2018-09-28T16:13:41.557Z,4.90
2018-09-28T16:16:14.340Z,6.87
2018-09-28T16:18:46.645Z,5.95
2018-09-28T16:21:19.049Z,6.60
2018-09-28T16:23:51.300Z,4.50
2018-09-28T16:26:23.675Z,6.85
2018-09-28T16:28:55.926Z,5.72
2018-09-28T16:31:29.137Z,5.78
2018-09-28T16:34:01.434Z,5.42
2018-09-28T16:36:34.933Z,4.75
2018-09-28T16:39:12.781Z,4.08
2018-09-28T16:41:45.209Z,3.95
2018-09-28T16:44:17.482Z,3.92
2018-09-28T16:46:49.974Z,3.83
2018-09-28T16:49:22.430Z,4.22
2018-09-28T16:51:55.489Z,5.22
2018-09-28T16:54:27.801Z,6.12
2018-09-28T16:57:00.499Z,5.58
2018-09-28T16:59:32.788Z,5.87
2018-09-28T17:02:05.174Z,4.50
2018-09-28T17:04:38.664Z,4.08
2018-09-28T17:07:11.833Z,4.28
2018-09-28T17:09:44.094Z,6.37
2018-09-28T17:12:16.845Z,4.70
2018-09-28T17:14:49.608Z,6.35
2018-09-28T17:17:22.348Z,5.40
2018-09-28T17:19:54.682Z,3.77
2018-09-28T17:22:27.007Z,3.95
2018-09-28T17:24:59.369Z,4.62
2018-09-28T17:27:31.808Z,6.28
2018-09-28T17:30:04.112Z,5.25
2018-09-28T17:32:37.663Z,5.33
2018-09-28T17:35:09.957Z,5.08
2018-09-28T17:37:42.665Z,4.03
2018-09-28T17:40:14.940Z,6.03
2018-09-28T17:42:47.414Z,6.70
2018-09-28T17:45:19.720Z,6.75
2018-09-28T17:47:52.289Z,5.55
2018-09-28T17:50:24.616Z,4.25
2018-09-28T17:52:56.982Z,4.97
2018-09-28T17:55:29.371Z,4.97
2018-09-28T17:58:02.890Z,3.75
2018-09-28T18:00:36.054Z,5.15
2018-09-28T18:03:08.511Z,6.37
2018-09-28T18:05:40.950Z,5.80
2018-09-28T18:08:13.379Z,9.75
2018-09-28T18:10:45.652Z,4.75
2018-09-28T18:13:18.168Z,4.60
2018-09-28T18:15:50.491Z,6.95
2018-09-28T18:18:23.105Z,5.87
2018-09-28T18:20:55.467Z,5.08
2018-09-28T18:23:28.710Z,5.22
2018-09-28T18:26:01.164Z,3.95
2018-09-28T18:28:33.569Z,5.95
2018-09-28T18:31:06.142Z,4.28
2018-09-28T18:33:38.496Z,4.65
2018-09-28T18:36:10.830Z,4.80
2018-09-28T18:38:43.558Z,8.75
2018-09-28T18:41:15.893Z,8.30
2018-09-28T18:43:48.333Z,3.83
2018-09-28T18:46:20.560Z,5.78
2018-09-28T18:48:52.873Z,4.97
2018-09-28T18:51:25.579Z,4.58
2018-09-28T18:53:57.924Z,4.75
2018-09-28T18:56:30.201Z,5.00
2018-09-28T18:59:02.786Z,4.97
2018-09-28T19:01:34.780Z,5.12
2018-09-28T19:04:06.803Z,4.12
2018-09-28T19:06:40.673Z,9.85
2018-09-28T19:09:13.749Z,5.70
2018-09-28T19:11:45.697Z,4.60
2018-09-28T19:14:17.720Z,4.75
2018-09-28T19:16:49.647Z,5.42
2018-09-28T19:19:21.667Z,3.85
2018-09-28T19:21:53.836Z,5.67
2018-09-28T19:24:25.924Z,7.40
2018-09-28T19:26:57.898Z,6.05
2018-09-28T19:29:30.051Z,5.33
2018-09-28T19:32:01.964Z,5.47
2018-09-28T19:34:33.948Z,9.13
2018-09-28T19:37:06.332Z,5.97
2018-09-28T19:39:38.831Z,6.53
2018-09-28T19:42:13.490Z,3.83
2018-09-28T19:47:29.583Z,6.35
2018-09-28T19:50:01.641Z,4.60
2018-09-28T19:52:33.527Z,4.62
2018-09-28T19:55:05.575Z,5.05
2018-09-28T19:57:37.590Z,5.60
2018-09-28T20:00:10.164Z,6.03
2018-09-28T20:02:42.564Z,4.92
2018-09-28T20:05:18.145Z,3.50
2018-09-28T20:07:50.094Z,3.40
2018-09-28T20:10:22.102Z,4.65
2018-09-28T20:12:54.053Z,5.47
2018-09-28T20:15:26.364Z,4.30
2018-09-28T20:17:58.340Z,3.30
2018-09-28T20:20:30.479Z,5.90
2018-09-28T20:23:02.408Z,4.62
2018-09-28T20:25:34.676Z,5.95
2018-09-28T20:28:06.615Z,4.37
2018-09-28T20:30:38.628Z,4.80
2018-09-28T20:33:10.730Z,3.42
2018-09-28T20:35:42.695Z,2.95
2018-09-28T20:38:14.659Z,5.22
2018-09-28T20:40:46.760Z,5.00
2018-09-28T20:43:18.688Z,6.90
2018-09-28T20:45:50.918Z,3.15
2018-09-28T20:48:22.869Z,5.25
2018-09-28T20:50:54.948Z,3.40
2018-09-28T20:53:26.881Z,4.05
2018-09-28T20:55:59.763Z,5.20
2018-09-28T20:58:31.820Z,4.20
2018-09-28T21:01:04.845Z,3.08
2018-09-28T21:03:38.508Z,4.20
2018-09-28T21:06:10.492Z,4.75
2018-09-28T21:08:43.080Z,3.12
2018-09-28T21:11:15.280Z,3.00
2018-09-28T21:13:47.949Z,5.17
2018-09-28T21:16:20.005Z,5.60
2018-09-28T21:18:51.966Z,7.03
2018-09-28T21:21:24.129Z,4.72
2018-09-28T21:23:56.099Z,4.83
2018-09-28T21:26:28.148Z,5.70
2018-09-28T21:29:00.771Z,9.05
2018-09-28T21:31:32.907Z,8.90
2018-09-28T21:34:04.936Z,4.80
2018-09-28T21:36:36.911Z,6.53
2018-09-28T21:39:11.746Z,5.12
2018-09-28T21:41:43.844Z,4.80
2018-09-28T21:44:15.795Z,4.83
2018-09-28T21:46:47.928Z,6.12
2018-09-28T21:49:20.014Z,8.55
2018-09-28T21:51:52.076Z,4.78
2018-09-28T21:54:24.035Z,3.92
2018-09-28T21:56:57.442Z,4.17
2018-09-28T21:59:30.558Z,5.97
2018-09-28T22:02:04.191Z,5.78
2018-09-28T22:04:40.330Z,6.33
2018-09-28T22:07:13.039Z,5.70
2018-09-28T22:09:47.008Z,4.17
2018-09-28T22:12:21.023Z,9.25
2018-09-28T22:14:54.585Z,6.83
2018-09-28T22:17:27.909Z,7.13
2018-09-28T22:19:59.868Z,7.00
2018-09-28T22:22:32.311Z,6.03
2018-09-28T22:25:04.300Z,6.17
2018-09-28T22:27:36.448Z,6.10
2018-09-28T22:30:08.456Z,5.63
2018-09-28T22:32:40.483Z,5.20
2018-09-28T22:35:13.384Z,4.10
2018-09-28T22:37:45.431Z,4.70
2018-09-28T22:40:17.552Z,4.90
2018-09-28T22:42:49.951Z,4.90
2018-09-28T22:45:23.252Z,6.33
2018-09-28T22:47:55.292Z,6.03
2018-09-28T22:50:27.272Z,5.80
2018-09-28T22:52:59.332Z,6.00
2018-09-28T22:55:31.584Z,5.80
2018-09-28T22:58:03.615Z,5.53
2018-09-28T23:00:35.602Z,5.40
2018-09-28T23:03:07.895Z,6.73
2018-09-28T23:05:40.071Z,5.67
2018-09-28T23:08:12.420Z,6.47
2018-09-28T23:10:45.526Z,6.30
2018-09-28T23:13:17.728Z,7.83
2018-09-28T23:15:49.734Z,6.70
2018-09-28T23:18:21.758Z,8.60
2018-09-28T23:20:53.731Z,7.60
2018-09-28T23:23:26.211Z,8.50
2018-09-28T23:25:58.210Z,7.00
2018-09-28T23:28:30.240Z,6.67
2018-09-28T23:31:02.868Z,5.83
2018-09-28T23:33:34.912Z,6.43
2018-09-28T23:36:06.881Z,6.43
2018-09-28T23:38:38.919Z,6.60
2018-09-28T23:41:15.264Z,6.97
2018-09-28T23:43:47.689Z,7.23
2018-09-28T23:46:20.096Z,6.97
2018-09-28T23:48:53.713Z,9.10
2018-09-28T23:51:26.272Z,6.57
2018-09-28T23:53:59.768Z,7.40
2018-09-28T23:56:31.706Z,7.80
2018-09-28T23:59:03.938Z,7.70
